This is the latest recevied weather packets stored in our database for station/object n3uvr. If no packets are shown the sender has not sent any weather packets the latest 1 day(s).
| Time | Temp. | Humidity | Pressure | Rain* | Wind** | Luminosity | Snow |
|---|---|---|---|---|---|---|---|
| 1778004560 | 27.22° C | 36% | 1006.3 hPa | 0 mm | 0 m/s | 984 W/m² | - |
| 1778002158 | 26.67° C | 39% | 1006.5 hPa | 0 mm | 0 m/s | 819 W/m² | - |
| 1778001557 | 26.67° C | 40% | 1006.8 hPa | 0 mm | 0 m/s | 766 W/m² | - |
| 1778000953 | 26.67° C | 40% | 1006.9 hPa | 0 mm | 0 m/s | 900 W/m² | - |
| 1777999773 | 26.11° C | 42% | 1007.1 hPa | 0.25 mm | 0 m/s | 336 W/m² | - |
| 1777998543 | 25.56° C | 42% | 1007.2 hPa | 0.25 mm | 0.45 m/s, 322° | 911 W/m² | - |
| 1777997335 | 25° C | 44% | 1007.4 hPa | 0.25 mm | 0 m/s | 895 W/m² | - |
| 1777996758 | 25° C | 46% | 1007.5 hPa | 0 mm | 0 m/s | 858 W/m² | - |
| 1777996168 | 24.44° C | 45% | 1007.5 hPa | 0 mm | 0 m/s | 207 W/m² | - |
| 1777995577 | 24.44° C | 47% | 1007.6 hPa | 0 mm | 0 m/s | 823 W/m² | - |
| 1777994982 | 23.89° C | 50% | 1007.7 hPa | 0 mm | 0 m/s | 132 W/m² | - |
| 1777994368 | 23.33° C | 49% | 1007.7 hPa | 0 mm | 0 m/s | 264 W/m² | - |
| 1777993163 | 22.22° C | 52% | 1007.8 hPa | 0 mm | 0 m/s | 473 W/m² | - |
| 1777991968 | 21.67° C | 55% | 1007.9 hPa | 0 mm | 0 m/s | 598 W/m² | - |
| 1777991373 | 21.67° C | 54% | 1008 hPa | 0 mm | 0 m/s | 271 W/m² | - |
| 1777990788 | 20.56° C | 58% | 1008 hPa | 0 mm | 0 m/s | 197 W/m² | - |
| 1777989594 | 18.33° C | 69% | 1008.5 hPa | 0 mm | 0 m/s | 148 W/m² | - |
| 1777988392 | 17.22° C | 73% | 1008.6 hPa | 0 mm | 0 m/s | 76 W/m² | - |
| 1777986591 | 14.44° C | 85% | 1008.4 hPa | 0 mm | 0 m/s | 79 W/m² | - |
| 1777985996 | 13.33° C | 86% | 1008.4 hPa | 0 mm | 0 m/s | 51 W/m² | - |
| 1777985380 | 12.78° C | 86% | 1008.2 hPa | 0 mm | 0 m/s | 100 W/m² | - |
| 1777984793 | 12.22° C | 86% | 1008.1 hPa | 0 mm | 0 m/s | 37 W/m² | - |
| 1777984194 | 11.67° C | 85% | 1008.4 hPa | 0 mm | 0 m/s | 33 W/m² | - |
| 1777982978 | 11.67° C | 85% | 1008.5 hPa | 0 mm | 0 m/s | 26 W/m² | - |
| 1777982350 | 11.11° C | 86% | 1008.5 hPa | 0 mm | 0 m/s | 23 W/m² | - |
* Rain latest hour (hover to see other rain measurements)
** Current wind speed in m/s (hover to see current wind gust speed)